Time;durP1;ratioP1;P1;durP2;ratioP2;P2;SDS_P1;SDS_P2;PMS_P1;PMS_P2;Temp;Humidity;BMP_temperature;BMP_pressure;BME280_temperature;BME280_humidity;BME280_pressure;Samples;Min_cycle;Max_cycle;Signal;HPM_P1;HPM_P2
2022/02/15 00:01:51;;;;;;;14.63;9.52;;;;;;;3.83;100.00;96097.97;5013977;28;20413;-65
2022/02/15 00:04:16;;;;;;;12.93;8.10;;;;;;;3.99;100.00;96101.59;5011778;28;20045;-63
2022/02/15 00:06:42;;;;;;;14.55;8.93;;;;;;;4.12;100.00;96096.97;5018706;28;20053;-64
2022/02/15 00:09:08;;;;;;;14.48;8.68;;;;;;;4.24;100.00;96098.09;5013573;28;20053;-64
2022/02/15 00:11:34;;;;;;;24.13;13.45;;;;;;;4.24;100.00;96101.59;5016759;28;20094;-64
2022/02/15 00:14:00;;;;;;;18.77;10.98;;;;;;;4.30;100.00;96092.09;5015780;28;20520;-64
2022/02/15 00:16:25;;;;;;;14.60;8.55;;;;;;;4.29;100.00;96095.94;5011436;28;20045;-65
2022/02/15 00:18:51;;;;;;;16.25;8.70;;;;;;;4.31;100.00;96101.03;5014274;28;20038;-65
2022/02/15 00:21:16;;;;;;;14.93;9.18;;;;;;;4.37;100.00;96099.66;5014486;28;20072;-64
2022/02/15 00:23:41;;;;;;;15.55;8.80;;;;;;;4.49;100.00;96102.38;5019901;28;20056;-66
2022/02/15 00:26:07;;;;;;;14.32;8.80;;;;;;;4.46;100.00;96099.53;5010999;28;20786;-65
2022/02/15 00:28:32;;;;;;;15.65;8.43;;;;;;;4.43;100.00;96102.94;5019574;28;20081;-64
2022/02/15 00:30:58;;;;;;;11.23;7.38;;;;;;;4.38;100.00;96098.53;5020121;28;20394;-65
2022/02/15 00:33:23;;;;;;;14.20;8.23;;;;;;;4.35;100.00;96099.22;5011312;28;20724;-62
2022/02/15 00:35:48;;;;;;;14.80;8.63;;;;;;;4.28;100.00;96107.13;5017483;28;20494;-64
2022/02/15 00:38:14;;;;;;;12.25;8.18;;;;;;;4.22;100.00;96107.34;5012745;28;20045;-65
2022/02/15 00:40:39;;;;;;;16.00;8.73;;;;;;;4.19;100.00;96108.03;5016508;28;20037;-65
2022/02/15 00:43:05;;;;;;;13.68;9.10;;;;;;;4.13;100.00;96098.56;5012036;28;20038;-66
2022/02/15 00:45:31;;;;;;;12.27;8.85;;;;;;;4.20;100.00;96100.72;5016798;28;20111;-64
2022/02/15 00:47:56;;;;;;;13.00;9.00;;;;;;;4.25;100.00;96108.63;5015409;28;20046;-63
2022/02/15 00:50:22;;;;;;;12.27;8.35;;;;;;;4.26;100.00;96104.75;5017112;28;20515;-66
2022/02/15 00:52:47;;;;;;;13.73;9.30;;;;;;;4.28;100.00;96105.22;5022629;28;20036;-66
2022/02/15 00:55:13;;;;;;;14.35;9.15;;;;;;;4.27;100.00;96110.97;5012327;28;20480;-66
2022/02/15 00:57:42;;;;;;;13.65;8.32;;;;;;;4.27;100.00;96106.34;5022462;28;20045;-65
2022/02/15 01:00:10;;;;;;;18.70;10.02;;;;;;;4.29;100.00;96114.16;5018318;28;20551;-64
2022/02/15 01:02:36;;;;;;;13.80;9.23;;;;;;;4.27;100.00;96109.06;5016436;28;20184;-64
2022/02/15 01:05:03;;;;;;;15.25;8.93;;;;;;;4.24;100.00;96115.16;5021341;28;20076;-65
2022/02/15 01:07:28;;;;;;;17.23;8.95;;;;;;;4.32;100.00;96113.44;5013743;28;20061;-66
2022/02/15 01:09:53;;;;;;;13.88;8.52;;;;;;;4.26;100.00;96114.81;5022030;28;20044;-64
2022/02/15 01:12:19;;;;;;;14.35;9.10;;;;;;;4.25;100.00;96115.94;5016520;28;20487;-65
2022/02/15 01:14:45;;;;;;;12.45;8.32;;;;;;;4.26;100.00;96122.94;5017985;28;20037;-65
2022/02/15 01:17:11;;;;;;;13.63;9.25;;;;;;;4.35;100.00;96116.28;5016486;28;20052;-66
2022/02/15 01:19:36;;;;;;;18.02;10.15;;;;;;;4.43;100.00;96125.44;5020057;28;20041;-65
2022/02/15 01:22:02;;;;;;;16.77;10.13;;;;;;;4.41;100.00;96122.25;5022167;28;20049;-64
2022/02/15 01:24:28;;;;;;;16.27;9.60;;;;;;;4.28;100.00;96126.09;4997643;28;20049;-64
2022/02/15 01:26:53;;;;;;;15.43;9.70;;;;;;;4.19;100.00;96127.00;5021060;28;20044;-64
2022/02/15 01:29:18;;;;;;;15.80;9.35;;;;;;;4.15;100.00;96123.41;5013938;28;20040;-64
2022/02/15 01:31:44;;;;;;;13.75;9.02;;;;;;;4.06;100.00;96122.72;5015631;28;20046;-64
2022/02/15 01:34:11;;;;;;;17.85;10.18;;;;;;;4.13;100.00;96125.66;5016243;28;20063;-64
2022/02/15 01:36:37;;;;;;;18.17;11.45;;;;;;;4.19;100.00;96109.97;5016098;28;20038;-64
2022/02/15 01:39:03;;;;;;;13.80;8.75;;;;;;;4.19;100.00;96120.81;5016493;28;20487;-66
2022/02/15 01:41:28;;;;;;;14.75;10.23;;;;;;;4.15;100.00;96120.69;5013970;28;20128;-65
2022/02/15 01:43:54;;;;;;;15.55;8.88;;;;;;;4.12;100.00;96115.94;5015847;28;20414;-66
2022/02/15 01:46:19;;;;;;;16.05;9.93;;;;;;;4.00;100.00;96115.94;5013702;28;20406;-65
2022/02/15 01:48:47;;;;;;;19.10;11.48;;;;;;;3.71;100.00;96109.59;5017785;28;20029;-63
2022/02/15 01:51:14;;;;;;;17.98;11.43;;;;;;;3.56;100.00;96104.81;5014231;28;20037;-64
2022/02/15 01:53:39;;;;;;;23.15;12.55;;;;;;;3.38;100.00;96117.75;5016943;28;20043;-64
2022/02/15 01:56:08;;;;;;;20.17;12.32;;;;;;;3.22;100.00;96112.97;5006034;28;20112;-66
2022/02/15 01:58:33;;;;;;;23.67;14.00;;;;;;;3.10;100.00;96104.00;5017761;28;20596;-65
2022/02/15 02:00:59;;;;;;;25.67;14.07;;;;;;;3.08;100.00;96107.06;5018096;28;20049;-64
2022/02/15 02:03:24;;;;;;;29.67;16.20;;;;;;;3.03;100.00;96116.16;5017220;28;20564;-65
2022/02/15 02:05:50;;;;;;;29.38;15.70;;;;;;;3.04;100.00;96114.25;5018126;28;20496;-64
2022/02/15 02:08:21;;;;;;;27.60;15.75;;;;;;;3.06;100.00;96118.22;5014853;28;20065;-65
2022/02/15 02:10:48;;;;;;;26.15;14.52;;;;;;;3.12;100.00;96123.44;5017838;28;20068;-63
2022/02/15 02:13:14;;;;;;;27.52;13.73;;;;;;;3.18;100.00;96120.16;5013306;28;20033;-63
2022/02/15 02:15:39;;;;;;;22.08;13.07;;;;;;;3.35;100.00;96121.94;5018732;28;20043;-65
2022/02/15 02:18:06;;;;;;;28.95;13.15;;;;;;;3.48;100.00;96117.34;5018466;28;20470;-63
2022/02/15 02:20:32;;;;;;;19.58;11.25;;;;;;;3.66;100.00;96109.03;5015137;28;20042;-64
2022/02/15 02:22:58;;;;;;;23.55;10.80;;;;;;;3.84;100.00;96105.00;5031489;28;20029;-64
2022/02/15 02:25:23;;;;;;;14.73;9.45;;;;;;;3.81;100.00;96106.44;5025875;28;20033;-64
2022/02/15 02:27:49;;;;;;;13.73;8.43;;;;;;;3.71;100.00;96109.59;5027705;28;20040;-63
2022/02/15 02:30:15;;;;;;;11.52;6.32;;;;;;;3.74;100.00;96111.63;5028866;28;20025;-64
2022/02/15 02:32:41;;;;;;;12.05;7.30;;;;;;;3.79;100.00;96114.09;5027980;28;20108;-64
2022/02/15 02:35:07;;;;;;;18.77;9.20;;;;;;;3.82;100.00;96115.38;5024992;28;20073;-65
2022/02/15 02:37:34;;;;;;;22.08;8.35;;;;;;;3.94;100.00;96111.88;5025991;28;20130;-65
2022/02/15 02:40:02;;;;;;;14.48;7.35;;;;;;;4.01;100.00;96112.88;5033667;28;20041;-64
2022/02/15 02:42:29;;;;;;;9.60;5.65;;;;;;;3.96;100.00;96118.56;5032060;28;20040;-66
2022/02/15 02:44:56;;;;;;;13.65;5.78;;;;;;;3.94;100.00;96118.09;5033810;28;20022;-66
2022/02/15 02:47:22;;;;;;;12.63;5.72;;;;;;;3.93;100.00;96115.72;5033181;28;20033;-65
2022/02/15 02:49:47;;;;;;;8.32;5.07;;;;;;;3.88;100.00;96122.13;5031631;28;20027;-65
2022/02/15 02:52:13;;;;;;;7.25;4.82;;;;;;;3.77;100.00;96119.06;5031226;28;20560;-65
2022/02/15 02:54:40;;;;;;;6.40;4.38;;;;;;;3.76;100.00;96122.13;5032205;28;20052;-65
2022/02/15 02:57:06;;;;;;;6.63;4.47;;;;;;;3.75;100.00;96125.97;5029673;28;20022;-64
2022/02/15 02:59:33;;;;;;;6.90;4.90;;;;;;;3.79;100.00;96114.09;5029780;28;20031;-65
2022/02/15 03:01:58;;;;;;;12.55;6.07;;;;;;;3.82;100.00;96113.44;5033800;28;20028;-65
2022/02/15 03:04:24;;;;;;;16.52;6.28;;;;;;;3.88;100.00;96115.94;5034819;28;20021;-66
2022/02/15 03:06:49;;;;;;;11.65;6.90;;;;;;;3.89;100.00;96126.44;5033007;28;20037;-66
2022/02/15 03:09:15;;;;;;;10.27;6.53;;;;;;;3.81;100.00;96124.63;5030665;28;20099;-65
2022/02/15 03:11:41;;;;;;;9.95;6.43;;;;;;;3.55;100.00;96128.41;5028350;28;20093;-66
2022/02/15 03:14:06;;;;;;;11.68;7.32;;;;;;;3.33;100.00;96132.31;5031946;28;20029;-66
2022/02/15 03:16:32;;;;;;;13.20;7.93;;;;;;;3.13;100.00;96133.09;5028851;28;20486;-65
2022/02/15 03:18:58;;;;;;;12.90;7.82;;;;;;;3.02;100.00;96133.50;5029053;28;20486;-64
2022/02/15 03:21:24;;;;;;;11.98;7.70;;;;;;;3.01;100.00;96128.44;5028996;28;20040;-63
2022/02/15 03:23:49;;;;;;;15.80;9.05;;;;;;;3.04;100.00;96138.59;5020617;28;20036;-64
2022/02/15 03:26:15;;;;;;;17.25;8.88;;;;;;;2.98;100.00;96132.59;5022531;28;20033;-65
2022/02/15 03:28:40;;;;;;;17.02;8.30;;;;;;;2.99;100.00;96130.66;5026782;28;20163;-65
2022/02/15 03:31:06;;;;;;;16.23;8.40;;;;;;;2.96;100.00;96142.19;5026058;28;20401;-65
2022/02/15 03:33:33;;;;;;;15.68;8.95;;;;;;;2.88;100.00;96141.09;5025496;28;20509;-64
2022/02/15 03:36:00;;;;;;;13.20;8.50;;;;;;;2.89;100.00;96136.50;5028744;28;20026;-64
2022/02/15 03:38:25;;;;;;;16.92;9.40;;;;;;;2.87;100.00;96137.63;5022852;28;20525;-64
2022/02/15 03:43:34;;;;;;;24.02;11.73;;;;;;;2.85;100.00;96155.31;5028162;28;20022;-63
2022/02/15 03:46:00;;;;;;;25.55;13.02;;;;;;;2.93;100.00;96154.44;5023461;28;20066;-64
2022/02/15 03:48:25;;;;;;;23.80;12.45;;;;;;;3.08;100.00;96154.97;5025992;28;20056;-65
2022/02/15 03:50:51;;;;;;;26.52;14.20;;;;;;;3.15;100.00;96161.44;5026698;28;20061;-63
2022/02/15 03:53:17;;;;;;;24.17;13.57;;;;;;;3.32;100.00;96167.81;5026813;28;20316;-63
2022/02/15 03:55:43;;;;;;;31.10;14.10;;;;;;;3.35;100.00;96167.94;5023694;28;20045;-64
2022/02/15 03:58:10;;;;;;;35.65;16.35;;;;;;;3.27;100.00;96165.31;5028803;28;20029;-65
2022/02/15 04:00:36;;;;;;;33.90;16.17;;;;;;;3.15;100.00;96166.84;5024951;28;20037;-64
2022/02/15 04:03:01;;;;;;;40.10;20.58;;;;;;;3.09;100.00;96161.97;5024367;28;20118;-63
2022/02/15 04:05:27;;;;;;;35.13;17.55;;;;;;;3.07;100.00;96162.28;5026885;28;20029;-64
2022/02/15 04:08:05;;;;;;;39.38;18.02;;;;;;;3.13;100.00;96171.00;5027012;28;20103;-65
2022/02/15 04:10:33;;;;;;;37.20;20.00;;;;;;;3.20;100.00;96160.44;5015403;28;20562;-64
2022/02/15 04:12:59;;;;;;;60.10;30.30;;;;;;;3.15;100.00;96169.56;5028656;28;20409;-63
2022/02/15 04:15:24;;;;;;;57.47;28.77;;;;;;;3.27;100.00;96170.72;5020166;28;20037;-65
2022/02/15 04:17:50;;;;;;;40.17;22.23;;;;;;;3.45;100.00;96172.16;5024715;28;20036;-64
2022/02/15 04:20:15;;;;;;;39.42;19.30;;;;;;;3.44;100.00;96184.91;5036674;28;20042;-64
2022/02/15 04:22:43;;;;;;;35.28;17.52;;;;;;;3.51;100.00;96189.78;5028464;28;20466;-64
2022/02/15 04:25:10;;;;;;;33.58;17.90;;;;;;;3.53;100.00;96190.25;5034692;28;20037;-64
2022/02/15 04:27:36;;;;;;;32.72;17.30;;;;;;;3.71;100.00;96184.63;5025581;28;20516;-64
2022/02/15 04:30:02;;;;;;;30.00;16.80;;;;;;;3.75;100.00;96183.63;5029235;28;20118;-64
2022/02/15 04:32:28;;;;;;;33.88;17.02;;;;;;;3.55;100.00;96185.28;5029218;28;20608;-64
2022/02/15 04:34:53;;;;;;;33.80;16.80;;;;;;;3.47;100.00;96185.34;5031877;28;20029;-64
2022/02/15 04:37:19;;;;;;;31.60;16.10;;;;;;;3.48;100.00;96189.66;5032014;28;20041;-64
2022/02/15 04:39:44;;;;;;;34.80;17.63;;;;;;;3.39;100.00;96195.16;5028175;28;20152;-64
2022/02/15 04:42:10;;;;;;;29.40;15.88;;;;;;;3.24;100.00;96183.00;5010406;28;20056;-65
2022/02/15 04:44:38;;;;;;;35.75;17.42;;;;;;;3.16;100.00;96184.66;5034204;28;20029;-64
2022/02/15 04:47:04;;;;;;;31.73;16.88;;;;;;;3.08;100.00;96192.84;5031056;28;20511;-64
2022/02/15 04:49:30;;;;;;;40.85;18.20;;;;;;;3.04;100.00;96185.41;5028175;28;20422;-64
2022/02/15 04:51:56;;;;;;;41.30;19.13;;;;;;;3.04;100.00;96203.53;5031589;28;20107;-64
2022/02/15 04:54:22;;;;;;;37.05;18.33;;;;;;;3.04;100.00;96208.94;5029221;28;20030;-65
2022/02/15 04:56:48;;;;;;;36.47;18.95;;;;;;;3.11;100.00;96205.72;5025744;28;20113;-64
2022/02/15 04:59:14;;;;;;;47.67;20.80;;;;;;;3.09;100.00;96211.44;5024539;28;20030;-64
2022/02/15 05:01:39;;;;;;;43.63;16.80;;;;;;;3.03;100.00;96207.38;5027075;28;20125;-64
2022/02/15 05:04:04;;;;;;;41.20;17.90;;;;;;;2.96;100.00;96205.19;5026969;28;20084;-64
2022/02/15 05:06:30;;;;;;;32.40;17.00;;;;;;;2.93;100.00;96197.72;5026236;28;20044;-64
2022/02/15 05:08:55;;;;;;;33.90;17.98;;;;;;;2.90;100.00;96203.81;5025236;28;20422;-64
2022/02/15 05:11:21;;;;;;;35.70;18.42;;;;;;;2.89;100.00;96209.53;5029246;28;20030;-63
2022/02/15 05:13:46;;;;;;;32.20;16.67;;;;;;;2.87;100.00;96207.16;5028188;28;20449;-64
2022/02/15 05:16:11;;;;;;;42.80;18.95;;;;;;;2.84;100.00;96208.59;5031051;28;20036;-64
2022/02/15 05:18:37;;;;;;;40.38;19.13;;;;;;;2.80;100.00;96207.66;5032957;28;20080;-62
2022/02/15 05:21:03;;;;;;;37.70;19.25;;;;;;;2.82;100.00;96212.75;5033508;28;20491;-66
2022/02/15 05:23:32;;;;;;;36.78;18.55;;;;;;;2.84;100.00;96208.59;5025301;28;20060;-62
2022/02/15 05:26:01;;;;;;;36.60;19.25;;;;;;;2.85;100.00;96215.59;5043880;28;20680;-62
2022/02/15 05:28:30;;;;;;;37.53;18.92;;;;;;;2.83;100.00;96217.84;5030456;28;20040;-64
2022/02/15 05:30:55;;;;;;;39.63;18.90;;;;;;;2.83;100.00;96219.75;5032383;28;20029;-63
2022/02/15 05:33:21;;;;;;;43.10;18.95;;;;;;;2.96;100.00;96218.72;5028676;28;20146;-65
2022/02/15 05:35:46;;;;;;;36.72;18.73;;;;;;;3.06;100.00;96223.75;5027519;28;20044;-64
2022/02/15 05:38:12;;;;;;;34.42;17.33;;;;;;;3.24;100.00;96223.59;5028773;28;20026;-64
2022/02/15 05:40:38;;;;;;;35.35;17.05;;;;;;;3.32;100.00;96222.75;5028005;28;20486;-65
2022/02/15 05:43:06;;;;;;;34.97;17.73;;;;;;;3.39;100.00;96227.63;5027934;28;20036;-65
2022/02/15 05:45:31;;;;;;;33.00;17.75;;;;;;;3.43;100.00;96226.63;5011504;28;20163;-64
2022/02/15 05:47:56;;;;;;;35.28;16.75;;;;;;;3.37;100.00;96227.97;5040634;28;20025;-66
2022/02/15 05:53:06;;;;;;;42.28;22.17;;;;;;;3.14;100.00;96235.63;5028647;28;20051;-63
2022/02/15 05:55:31;;;;;;;40.63;21.48;;;;;;;3.23;100.00;96247.16;5026269;28;20112;-64
2022/02/15 05:57:57;;;;;;;30.70;16.52;;;;;;;3.21;100.00;96237.81;5023381;28;20033;-65
2022/02/15 06:00:22;;;;;;;31.77;16.75;;;;;;;3.12;100.00;96245.19;5025516;28;20041;-64
2022/02/15 06:02:47;;;;;;;32.55;17.48;;;;;;;3.12;100.00;96248.69;5027457;28;20041;-63
2022/02/15 06:05:14;;;;;;;32.17;16.30;;;;;;;3.19;100.00;96248.94;5030272;28;20478;-64
2022/02/15 06:07:39;;;;;;;34.70;18.48;;;;;;;3.31;100.00;96256.34;5026856;28;20423;-65
2022/02/15 06:10:05;;;;;;;35.40;17.67;;;;;;;3.36;100.00;96260.75;5027963;28;20022;-64
2022/02/15 06:12:31;;;;;;;32.13;16.77;;;;;;;3.38;100.00;96261.22;5025183;28;20489;-65
2022/02/15 06:14:56;;;;;;;32.33;16.92;;;;;;;3.44;100.00;96259.91;5027396;28;20109;-67
2022/02/15 06:17:22;;;;;;;33.35;16.15;;;;;;;3.59;100.00;96264.72;5028106;28;20040;-62
2022/02/15 06:19:47;;;;;;;26.30;15.98;;;;;;;3.66;100.00;96260.69;5027733;28;20060;-64
2022/02/15 06:22:12;;;;;;;29.75;17.02;;;;;;;3.60;100.00;96260.91;5026872;28;20112;-65
2022/02/15 06:24:38;;;;;;;30.65;16.10;;;;;;;3.49;100.00;96267.81;5027595;28;20037;-64
2022/02/15 06:27:03;;;;;;;28.98;16.45;;;;;;;3.34;100.00;96269.22;5024754;28;20037;-66
2022/02/15 06:29:34;;;;;;;30.88;15.85;;;;;;;3.31;100.00;96275.28;5026097;28;20037;-63
2022/02/15 06:32:00;;;;;;;51.22;19.40;;;;;;;3.38;100.00;96269.34;5029092;28;20030;-66
2022/02/15 06:34:25;;;;;;;30.67;16.52;;;;;;;3.40;100.00;96275.22;5029242;28;20040;-66
2022/02/15 06:36:52;;;;;;;31.10;15.77;;;;;;;3.67;100.00;96283.94;5025765;28;20037;-64
2022/02/15 06:39:18;;;;;;;30.40;16.52;;;;;;;3.59;100.00;96293.72;5028724;28;20032;-65
2022/02/15 06:41:43;;;;;;;28.67;17.00;;;;;;;3.55;100.00;96298.22;5029534;28;20026;-66
2022/02/15 06:44:09;;;;;;;28.50;15.65;;;;;;;3.67;100.00;96311.81;5026213;28;20105;-65
2022/02/15 06:46:35;;;;;;;29.90;16.88;;;;;;;3.58;100.00;96306.47;5026079;28;20037;-65
2022/02/15 06:49:00;;;;;;;29.75;15.77;;;;;;;3.66;100.00;96314.88;5022455;28;20385;-64
2022/02/15 06:51:26;;;;;;;31.63;16.20;;;;;;;3.63;100.00;96329.84;5027829;28;20021;-65
2022/02/15 06:53:51;;;;;;;33.40;16.38;;;;;;;3.75;100.00;96327.19;5024807;28;20068;-65
2022/02/15 06:56:17;;;;;;;30.50;16.10;;;;;;;3.88;100.00;96332.69;5026186;28;20026;-65
2022/02/15 06:58:42;;;;;;;29.73;15.50;;;;;;;3.94;100.00;96328.63;5027600;28;20445;-65
2022/02/15 07:01:09;;;;;;;26.42;15.25;;;;;;;4.03;100.00;96321.22;5028434;28;20055;-63
2022/02/15 07:03:35;;;;;;;30.90;16.27;;;;;;;3.98;100.00;96338.47;5026485;28;20040;-65
2022/02/15 07:06:00;;;;;;;29.48;16.88;;;;;;;3.92;100.00;96342.50;5027994;28;20029;-64
2022/02/15 07:08:25;;;;;;;27.83;15.15;;;;;;;3.95;100.00;96354.63;5027211;28;20485;-64
2022/02/15 07:10:54;;;;;;;35.25;17.35;;;;;;;4.01;100.00;96356.00;5026904;28;20034;-64
2022/02/15 07:13:25;;;;;;;29.95;16.48;;;;;;;3.95;100.00;96354.63;5026897;28;20058;-65
2022/02/15 07:15:51;;;;;;;27.08;15.82;;;;;;;4.02;100.00;96344.81;5026379;28;20029;-65
2022/02/15 07:18:17;;;;;;;29.90;14.68;;;;;;;4.18;100.00;96341.50;5029701;28;20094;-66
2022/02/15 07:20:43;;;;;;;23.75;13.65;;;;;;;4.21;100.00;96347.06;5029218;28;20049;-66
2022/02/15 07:23:10;;;;;;;21.80;12.05;;;;;;;3.91;100.00;96345.56;5027084;28;20033;-64
2022/02/15 07:25:36;;;;;;;17.90;11.00;;;;;;;3.85;100.00;96353.09;5029630;28;20033;-64
2022/02/15 07:28:03;;;;;;;17.48;9.93;;;;;;;3.89;100.00;96362.16;5025896;28;20037;-65
2022/02/15 07:30:29;;;;;;;14.57;9.43;;;;;;;4.02;100.00;96360.28;5032626;28;20026;-64
2022/02/15 07:32:55;;;;;;;13.63;8.07;;;;;;;4.06;100.00;96366.63;5029788;28;20036;-65
2022/02/15 07:35:21;;;;;;;11.10;6.88;;;;;;;4.01;100.00;96369.53;5031119;28;20025;-62
2022/02/15 07:37:50;;;;;;;13.48;6.78;;;;;;;4.05;100.00;96375.88;5032751;28;20601;-64
2022/02/15 07:40:19;;;;;;;11.25;6.13;;;;;;;4.24;100.00;96380.81;5043881;28;20032;-63
2022/02/15 07:42:45;;;;;;;10.93;6.55;;;;;;;3.99;100.00;96388.03;5023105;28;20049;-63
2022/02/15 07:45:17;;;;;;;9.82;6.03;;;;;;;4.02;100.00;96390.09;5026147;28;20095;-65
2022/02/15 07:47:50;;;;;;;11.18;6.70;;;;;;;3.93;100.00;96394.81;5028449;28;20041;-63
2022/02/15 07:50:17;;;;;;;10.63;6.60;;;;;;;4.00;100.00;96395.84;5025144;28;20030;-64
2022/02/15 07:52:44;;;;;;;12.52;6.93;;;;;;;4.07;100.00;96399.94;5029568;28;20037;-64
2022/02/15 07:55:10;;;;;;;11.65;6.57;;;;;;;3.97;100.00;96393.78;5025303;28;20033;-64
2022/02/15 07:57:36;;;;;;;10.43;5.95;;;;;;;3.97;100.00;96398.44;5027609;28;20035;-64
2022/02/15 08:00:02;;;;;;;9.82;6.22;;;;;;;4.01;100.00;96397.41;5028409;28;20030;-64
2022/02/15 08:02:27;;;;;;;12.55;6.72;;;;;;;4.16;100.00;96400.66;5030494;28;20533;-63
2022/02/15 08:04:52;;;;;;;9.95;6.45;;;;;;;4.35;100.00;96409.09;5028601;28;20034;-63
2022/02/15 08:07:18;;;;;;;10.10;5.95;;;;;;;4.32;100.00;96417.09;5030274;28;20313;-64
2022/02/15 08:09:43;;;;;;;9.35;5.38;;;;;;;4.42;100.00;96402.34;5039848;28;20045;-64
2022/02/15 08:12:11;;;;;;;8.88;5.75;;;;;;;4.39;100.00;96401.91;5038976;28;20464;-64
2022/02/15 08:14:37;;;;;;;8.68;5.97;;;;;;;4.40;100.00;96418.94;5034803;28;20446;-63
2022/02/15 08:17:03;;;;;;;10.20;5.47;;;;;;;4.49;100.00;96406.09;5034676;28;20053;-65
2022/02/15 08:19:28;;;;;;;8.30;5.32;;;;;;;4.51;100.00;96414.69;5034047;28;20437;-65
2022/02/15 08:21:56;;;;;;;9.85;5.18;;;;;;;4.59;100.00;96419.25;5029566;28;20045;-65
2022/02/15 08:24:22;;;;;;;7.35;5.28;;;;;;;4.72;100.00;96427.44;5034558;28;20121;-65
2022/02/15 08:26:48;;;;;;;6.63;4.65;;;;;;;4.63;100.00;96419.38;5032471;28;20029;-64
2022/02/15 08:29:13;;;;;;;7.07;4.63;;;;;;;4.45;100.00;96417.94;5031228;28;20021;-65
2022/02/15 08:31:39;;;;;;;10.43;4.95;;;;;;;4.63;100.00;96416.66;5031947;28;20021;-65
2022/02/15 08:34:04;;;;;;;6.20;4.60;;;;;;;4.71;100.00;96423.91;5029869;28;20496;-66
2022/02/15 08:36:30;;;;;;;7.57;4.60;;;;;;;4.61;100.00;96418.94;5031106;28;20017;-65
2022/02/15 08:38:55;;;;;;;6.38;4.22;;;;;;;4.76;100.00;96426.41;5029929;28;20041;-63
2022/02/15 08:41:21;;;;;;;7.82;5.72;;;;;;;4.51;100.00;96430.19;5034961;28;20030;-65
2022/02/15 08:43:46;;;;;;;7.43;4.90;;;;;;;4.54;100.00;96440.38;5030926;28;20041;-63
2022/02/15 08:46:12;;;;;;;7.38;4.88;;;;;;;4.56;100.00;96438.13;5030382;28;20033;-66
2022/02/15 08:48:37;;;;;;;6.65;4.40;;;;;;;4.68;100.00;96453.63;5037747;28;20029;-66
2022/02/15 08:51:03;;;;;;;8.55;4.78;;;;;;;4.75;100.00;96443.03;5034190;28;20392;-67
2022/02/15 08:53:28;;;;;;;8.15;4.78;;;;;;;4.72;100.00;96449.13;5029520;28;20064;-67
2022/02/15 08:55:54;;;;;;;6.50;4.60;;;;;;;4.70;100.00;96465.75;5029327;28;20459;-65
2022/02/15 08:58:19;;;;;;;7.28;5.00;;;;;;;4.77;100.00;96455.13;5027391;28;20033;-66
2022/02/15 09:00:45;;;;;;;6.35;4.47;;;;;;;4.67;100.00;96466.41;5046903;28;20405;-65
2022/02/15 09:03:10;;;;;;;7.70;4.55;;;;;;;4.78;100.00;96470.28;5034643;28;20072;-66
2022/02/15 09:05:36;;;;;;;6.95;4.40;;;;;;;4.95;100.00;96465.78;5031755;28;20030;-65
2022/02/15 09:08:01;;;;;;;5.90;4.00;;;;;;;5.05;100.00;96470.03;5034045;28;20108;-66
2022/02/15 09:10:26;;;;;;;6.88;4.53;;;;;;;5.04;100.00;96468.44;5023707;28;20041;-65
2022/02/15 09:12:52;;;;;;;6.30;4.40;;;;;;;5.09;100.00;96470.94;5018970;28;20041;-64
2022/02/15 09:15:17;;;;;;;9.57;4.43;;;;;;;5.18;100.00;96471.63;5025092;28;20133;-65
2022/02/15 09:17:43;;;;;;;7.25;5.00;;;;;;;5.20;100.00;96463.13;5017774;28;20069;-64
2022/02/15 09:20:11;;;;;;;7.25;4.85;;;;;;;5.21;100.00;96467.44;5010523;28;20053;-64
2022/02/15 09:22:40;;;;;;;7.32;4.88;;;;;;;5.38;100.00;96466.44;5019841;28;20065;-64
2022/02/15 09:25:06;;;;;;;8.07;5.40;;;;;;;5.47;100.00;96464.41;5015445;28;20041;-65
2022/02/15 09:27:31;;;;;;;6.97;4.57;;;;;;;5.69;100.00;96474.03;5018607;28;20041;-64
2022/02/15 09:29:57;;;;;;;8.02;5.07;;;;;;;5.69;100.00;96468.59;5018860;28;20136;-65
2022/02/15 09:32:23;;;;;;;8.38;4.68;;;;;;;5.93;100.00;96473.25;5010430;28;20466;-65
2022/02/15 09:34:48;;;;;;;8.50;5.30;;;;;;;5.68;100.00;96488.75;5017497;28;20111;-67
2022/02/15 09:37:14;;;;;;;8.57;6.07;;;;;;;5.55;100.00;96485.25;5009114;28;20053;-64
2022/02/15 09:39:39;;;;;;;9.27;6.20;;;;;;;5.47;100.00;96494.28;5013346;28;20049;-64
2022/02/15 09:42:05;;;;;;;9.20;6.32;;;;;;;5.48;100.00;96493.97;5003549;28;20462;-66
2022/02/15 09:44:30;;;;;;;9.82;6.05;;;;;;;5.40;100.00;96502.19;5029789;28;20128;-64
2022/02/15 09:46:56;;;;;;;10.13;6.40;;;;;;;5.45;100.00;96496.56;5015516;28;20126;-67
2022/02/15 09:52:13;;;;;;;9.90;6.63;;;;;;;5.43;100.00;96502.31;5009792;28;21477;-65
2022/02/15 09:54:40;;;;;;;10.00;6.03;;;;;;;5.25;100.00;96503.66;5029461;28;20490;-63
2022/02/15 09:57:06;;;;;;;10.15;6.70;;;;;;;5.41;100.00;96507.31;5011941;28;20050;-65
2022/02/15 09:59:31;;;;;;;10.48;6.78;;;;;;;5.23;100.00;96516.78;5013290;28;20041;-65
2022/02/15 10:01:57;;;;;;;12.10;6.07;;;;;;;5.03;100.00;96521.16;5014846;28;20054;-66
2022/02/15 10:04:33;;;;;;;12.70;7.60;;;;;;;5.07;100.00;96522.06;5009639;28;20068;-65
2022/02/15 10:07:00;;;;;;;9.93;6.47;;;;;;;5.10;100.00;96527.59;5017550;28;20060;-66
2022/02/15 10:09:27;;;;;;;12.70;8.20;;;;;;;5.06;100.00;96521.28;5012129;28;20050;-65
2022/02/15 10:12:01;;;;;;;10.85;7.05;;;;;;;4.97;100.00;96521.34;5011855;28;20045;-64
2022/02/15 10:14:26;;;;;;;10.38;6.50;;;;;;;5.08;100.00;96527.16;5012605;28;20045;-65
2022/02/15 10:16:52;;;;;;;13.40;7.25;;;;;;;5.06;100.00;96523.97;5018106;28;20051;-65
2022/02/15 10:19:27;;;;;;;13.65;7.05;;;;;;;5.10;100.00;96537.69;5010700;28;20049;-65
2022/02/15 10:21:58;;;;;;;11.98;7.05;;;;;;;5.04;100.00;96531.66;5012558;28;20462;-65
2022/02/15 10:24:25;;;;;;;10.68;6.10;;;;;;;5.02;100.00;96530.41;5010170;28;20474;-64
2022/02/15 10:27:25;;;;;;;9.77;6.25;;;;;;;4.98;100.00;96525.63;5014727;28;20033;-65
2022/02/15 10:29:54;;;;;;;11.73;6.53;;;;;;;4.87;100.00;96532.63;5015404;28;20045;-64
2022/02/15 10:32:22;;;;;;;11.00;6.60;;;;;;;4.82;100.00;96529.31;5009557;28;20037;-65
2022/02/15 10:34:53;;;;;;;10.35;6.40;;;;;;;4.70;100.00;96530.03;5008870;28;20451;-64
2022/02/15 10:37:20;;;;;;;9.00;5.15;;;;;;;4.67;100.00;96523.38;5013101;28;20042;-64
2022/02/15 10:39:54;;;;;;;7.35;4.60;;;;;;;4.71;100.00;96532.44;5018684;28;20154;-64
2022/02/15 10:42:24;;;;;;;7.32;4.28;;;;;;;4.75;100.00;96516.28;5013224;28;20041;-63
2022/02/15 10:45:01;;;;;;;7.97;4.50;;;;;;;4.63;100.00;96517.03;5019002;28;20041;-64
2022/02/15 10:47:35;;;;;;;6.65;4.07;;;;;;;4.63;100.00;96516.22;5009362;28;20069;-64
2022/02/15 10:50:06;;;;;;;7.53;4.72;;;;;;;4.64;100.00;96512.41;5018699;28;20046;-64
2022/02/15 10:52:32;;;;;;;6.05;4.05;;;;;;;4.65;100.00;96517.50;5018146;28;20498;-65
2022/02/15 10:54:58;;;;;;;7.00;3.78;;;;;;;4.63;100.00;96521.66;5020689;28;20445;-64
2022/02/15 10:57:24;;;;;;;5.75;3.97;;;;;;;4.74;100.00;96529.06;5022002;28;20045;-63
2022/02/15 10:59:54;;;;;;;4.90;3.53;;;;;;;4.89;100.00;96532.28;5024213;28;20044;-64
2022/02/15 11:02:23;;;;;;;5.60;3.72;;;;;;;5.04;100.00;96531.66;5020190;28;20140;-65
2022/02/15 11:04:50;;;;;;;5.47;3.67;;;;;;;5.03;100.00;96540.94;5032028;28;20056;-65
2022/02/15 11:07:21;;;;;;;4.47;3.28;;;;;;;5.02;100.00;96538.53;5041090;28;20040;-65
2022/02/15 11:10:20;;;;;;;4.85;3.22;;;;;;;5.21;100.00;96529.91;5020805;28;20147;-67
2022/02/15 11:12:52;;;;;;;6.25;3.47;;;;;;;5.14;100.00;96530.44;5038498;28;20063;-65
2022/02/15 11:15:31;;;;;;;9.60;3.58;;;;;;;5.30;100.00;96527.88;5024933;28;20044;-65
2022/02/15 11:17:58;;;;;;;;;;;;;;;5.16;100.00;96534.41;5023328;28;20417;-63
2022/02/15 11:20:27;;;;;;;4.07;2.97;;;;;;;5.13;100.00;96531.56;5015722;28;20516;-64
2022/02/15 11:22:55;;;;;;;4.30;2.83;;;;;;;5.07;100.00;96532.91;5028371;28;20033;-63
2022/02/15 11:25:33;;;;;;;2.97;2.05;;;;;;;5.16;100.00;96539.03;5018453;28;20049;-64
2022/02/15 11:28:16;;;;;;;8.02;2.20;;;;;;;5.16;100.00;96528.97;5019951;28;20132;-63
2022/02/15 11:30:51;;;;;;;6.90;2.55;;;;;;;4.90;100.00;96540.09;5004189;28;20057;-63